createdAt,value
2022-09-12T00:01:34.880Z,92.79
2022-09-12T00:04:22.943Z,92.55
2022-09-12T00:07:10.956Z,92.51
2022-09-12T00:09:59.352Z,92.89
2022-09-12T00:12:47.116Z,92.79
2022-09-12T00:15:42.922Z,93.16
2022-09-12T00:18:30.859Z,93.07
2022-09-12T00:21:20.165Z,93.01
2022-09-12T00:24:09.328Z,93.41
2022-09-12T00:26:56.883Z,93.56
2022-09-12T00:29:44.893Z,93.60
2022-09-12T00:32:32.964Z,93.38
2022-09-12T00:35:21.379Z,93.45
2022-09-12T00:38:09.604Z,93.54
2022-09-12T00:40:57.312Z,93.59
2022-09-12T00:43:53.302Z,93.47
2022-09-12T00:46:57.135Z,93.87
2022-09-12T00:49:52.241Z,93.94
2022-09-12T00:52:48.261Z,93.84
2022-09-12T00:55:41.822Z,93.50
2022-09-12T00:58:38.729Z,93.91
2022-09-12T01:01:31.757Z,93.93
2022-09-12T01:04:23.748Z,94.29
2022-09-12T01:07:13.021Z,94.43
2022-09-12T01:10:00.860Z,94.58
2022-09-12T01:12:52.307Z,94.58
2022-09-12T01:15:40.895Z,94.86
2022-09-12T01:18:55.796Z,94.84
2022-09-12T01:22:17.858Z,94.89
2022-09-12T01:25:43.670Z,95.08
2022-09-12T01:29:10.028Z,95.32
2022-09-12T01:32:51.804Z,95.52
2022-09-12T01:36:40.657Z,95.45
2022-09-12T01:39:36.645Z,95.40
2022-09-12T01:42:47.221Z,95.49
2022-09-12T01:46:35.046Z,95.64
2022-09-12T01:49:46.603Z,95.64
2022-09-12T01:52:46.062Z,96.03
2022-09-12T01:55:50.124Z,95.92
2022-09-12T01:58:51.408Z,96.04
2022-09-12T02:02:11.335Z,96.03
2022-09-12T02:05:17.564Z,96.19
2022-09-12T02:08:20.957Z,96.46
2022-09-12T02:11:12.913Z,96.62
2022-09-12T02:14:12.188Z,96.44
2022-09-12T02:17:18.674Z,96.37
2022-09-12T02:20:37.488Z,96.56
2022-09-12T02:23:31.726Z,96.84
2022-09-12T02:26:38.848Z,96.52
2022-09-12T02:29:27.251Z,96.87
2022-09-12T02:32:56.034Z,96.98
2022-09-12T02:35:58.565Z,96.81
2022-09-12T02:38:48.869Z,96.87
2022-09-12T02:41:36.840Z,96.71
2022-09-12T02:44:27.348Z,96.75
2022-09-12T02:47:29.171Z,96.62
2022-09-12T02:50:18.112Z,96.54
2022-09-12T02:53:08.631Z,96.59
2022-09-12T02:55:57.429Z,96.66
2022-09-12T02:58:45.781Z,96.52
2022-09-12T03:02:07.098Z,96.53
2022-09-12T03:05:27.237Z,96.80
2022-09-12T03:09:01.609Z,97.26
2022-09-12T03:12:04.566Z,97.36
2022-09-12T03:15:11.109Z,97.24
2022-09-12T03:18:06.831Z,97.10
2022-09-12T03:21:46.248Z,97.26
2022-09-12T03:25:06.333Z,97.12
2022-09-12T03:28:07.690Z,97.25
2022-09-12T03:30:56.757Z,97.34
2022-09-12T03:33:45.402Z,97.48
2022-09-12T03:36:33.413Z,97.50
2022-09-12T03:39:24.452Z,97.62
2022-09-12T03:42:12.614Z,97.36
2022-09-12T03:45:00.640Z,97.75
2022-09-12T03:47:48.612Z,97.73
2022-09-12T03:50:36.639Z,97.77
2022-09-12T03:53:25.147Z,97.68
2022-09-12T03:56:14.767Z,98.18
2022-09-12T03:59:06.207Z,98.10
2022-09-12T04:01:53.873Z,98.23
2022-09-12T04:04:44.846Z,98.14
2022-09-12T04:07:32.858Z,98.13
2022-09-12T04:10:21.138Z,98.09
2022-09-12T04:13:09.349Z,98.26
2022-09-12T04:16:02.138Z,98.22
2022-09-12T04:18:49.930Z,98.12
2022-09-12T04:21:39.721Z,98.08
2022-09-12T04:24:27.562Z,97.89
2022-09-12T04:27:15.706Z,97.74
2022-09-12T04:30:04.304Z,97.71
2022-09-12T04:32:52.091Z,97.85
2022-09-12T04:35:39.921Z,97.64
2022-09-12T04:38:27.977Z,97.59
2022-09-12T04:41:21.288Z,97.67
2022-09-12T04:44:13.756Z,97.65
2022-09-12T04:47:01.703Z,97.59
2022-09-12T04:49:51.283Z,97.30
2022-09-12T04:52:38.789Z,97.53
2022-09-12T04:55:26.956Z,97.36
2022-09-12T04:58:15.100Z,97.25
2022-09-12T05:01:11.725Z,97.31
2022-09-12T05:04:00.186Z,97.25
2022-09-12T05:06:48.211Z,97.13
2022-09-12T05:09:35.899Z,97.23
2022-09-12T05:12:23.847Z,96.94
2022-09-12T05:15:12.039Z,96.92
2022-09-12T05:17:59.909Z,96.56
2022-09-12T05:20:47.861Z,96.25
2022-09-12T05:23:36.555Z,96.06
2022-09-12T05:26:24.741Z,96.04
2022-09-12T05:29:13.327Z,95.68
2022-09-12T05:32:02.155Z,95.30
2022-09-12T05:34:50.169Z,95.18
2022-09-12T05:37:37.831Z,94.39
2022-09-12T05:40:25.774Z,94.31
2022-09-12T05:43:13.932Z,93.97
2022-09-12T05:46:05.342Z,93.77
2022-09-12T05:48:56.426Z,93.47
2022-09-12T05:51:45.782Z,93.19
2022-09-12T05:54:34.533Z,92.23
2022-09-12T05:57:22.584Z,92.23
2022-09-12T06:00:11.616Z,92.12
2022-09-12T06:03:03.423Z,91.50
2022-09-12T06:05:51.209Z,90.75
2022-09-12T06:08:40.530Z,90.04
2022-09-12T06:11:31.994Z,89.41
2022-09-12T06:14:20.700Z,88.18
2022-09-12T06:17:08.738Z,86.66
2022-09-12T06:19:57.155Z,84.83
2022-09-12T06:22:45.031Z,82.68
2022-09-12T06:25:32.965Z,79.89
2022-09-12T06:28:21.077Z,75.09
2022-09-12T06:31:15.242Z,66.47
2022-09-12T06:34:07.003Z,60.49
2022-09-12T06:36:54.845Z,55.12
2022-09-12T06:39:42.755Z,50.50
2022-09-12T06:42:30.686Z,46.67
2022-09-12T06:45:20.158Z,42.57
2022-09-12T06:48:08.145Z,39.75
2022-09-12T06:51:02.308Z,37.41
2022-09-12T06:53:50.443Z,35.85
2022-09-12T06:56:38.254Z,32.88
2022-09-12T06:59:26.501Z,31.38
2022-09-12T07:02:14.485Z,29.74
2022-09-12T07:05:02.422Z,29.29
2022-09-12T07:07:50.333Z,28.87
2022-09-12T07:10:38.188Z,28.18
2022-09-12T07:13:26.585Z,27.67
2022-09-12T07:16:19.416Z,27.11
2022-09-12T07:19:09.132Z,25.90
2022-09-12T07:21:58.811Z,25.85
2022-09-12T07:24:48.024Z,25.50
2022-09-12T07:27:37.842Z,25.36
2022-09-12T07:30:28.050Z,24.98
2022-09-12T07:33:16.174Z,24.08
2022-09-12T07:36:08.142Z,24.43
2022-09-12T07:38:59.276Z,24.06
2022-09-12T07:41:47.357Z,23.80
2022-09-12T07:44:35.246Z,23.63
2022-09-12T07:47:23.474Z,23.67
2022-09-12T07:50:11.546Z,23.58
2022-09-12T07:52:59.851Z,23.10
2022-09-12T07:55:55.291Z,23.38
2022-09-12T07:58:44.806Z,23.26
2022-09-12T08:01:32.889Z,23.10
2022-09-12T08:04:21.435Z,22.94
2022-09-12T08:07:09.631Z,22.56
2022-09-12T08:09:57.673Z,22.12
2022-09-12T08:12:45.633Z,21.85
2022-09-12T08:15:35.206Z,21.63
2022-09-12T08:18:23.219Z,22.50
2022-09-12T08:21:17.189Z,23.21
2022-09-12T08:24:06.869Z,24.11
2022-09-12T08:26:54.807Z,26.48
2022-09-12T08:29:43.076Z,26.31
2022-09-12T08:32:32.327Z,25.62
2022-09-12T08:35:28.541Z,24.35
2022-09-12T08:38:16.550Z,23.90
2022-09-12T08:41:35.260Z,24.32
2022-09-12T08:44:58.872Z,25.54
2022-09-12T08:56:15.581Z,25.08
2022-09-12T08:59:03.574Z,11.83
2022-09-12T09:01:55.831Z,25.43
2022-09-12T09:04:52.342Z,25.44
2022-09-12T09:08:30.933Z,26.10
2022-09-12T09:11:36.587Z,27.20
2022-09-12T09:15:01.384Z,28.33
2022-09-12T09:18:06.258Z,26.93
2022-09-12T09:21:08.527Z,26.89
2022-09-12T09:25:25.118Z,25.92
2022-09-12T09:29:16.578Z,24.49
2022-09-12T09:32:23.760Z,25.83
2022-09-12T09:35:51.153Z,28.12
2022-09-12T09:38:55.212Z,27.79
2022-09-12T09:41:53.286Z,26.41
2022-09-12T09:44:41.429Z,25.07
2022-09-12T09:47:29.352Z,23.43
2022-09-12T09:50:17.751Z,22.50
2022-09-12T09:53:09.479Z,21.26
2022-09-12T09:56:03.402Z,20.39
2022-09-12T09:58:51.226Z,19.82
2022-09-12T10:02:14.304Z,19.35
2022-09-12T10:05:02.265Z,18.76
2022-09-12T10:07:53.085Z,18.27
2022-09-12T10:11:06.285Z,19.35
2022-09-12T10:13:58.142Z,20.86
2022-09-12T10:16:55.190Z,22.91
2022-09-12T10:19:43.333Z,23.10
2022-09-12T10:22:31.552Z,21.88
2022-09-12T10:25:21.578Z,21.37
2022-09-12T10:28:27.291Z,21.29
2022-09-12T10:31:31.930Z,22.43
2022-09-12T10:34:37.632Z,23.99
2022-09-12T10:37:36.179Z,23.93
2022-09-12T10:40:28.679Z,23.47
2022-09-12T10:43:39.318Z,22.70
2022-09-12T10:46:31.758Z,21.63
2022-09-12T10:49:31.585Z,21.66
2022-09-12T10:52:27.510Z,21.23
2022-09-12T10:55:16.017Z,20.81
2022-09-12T10:58:36.851Z,21.07
2022-09-12T11:01:36.731Z,21.88
2022-09-12T11:04:30.897Z,21.42
2022-09-12T11:08:18.975Z,21.69
2022-09-12T11:11:24.940Z,21.72
2022-09-12T11:14:37.303Z,21.63
2022-09-12T11:18:00.669Z,22.08
2022-09-12T11:21:18.536Z,23.06
2022-09-12T11:24:18.087Z,24.52
2022-09-12T11:27:21.150Z,24.94
2022-09-12T11:30:16.315Z,24.87
2022-09-12T11:33:22.112Z,24.85
2022-09-12T11:36:48.655Z,24.40
2022-09-12T11:39:44.398Z,25.40
2022-09-12T11:42:39.505Z,26.46
2022-09-12T11:45:40.583Z,27.98
2022-09-12T11:48:45.379Z,28.72
2022-09-12T11:51:41.590Z,29.22
2022-09-12T11:55:09.054Z,29.79
2022-09-12T11:58:01.740Z,29.33
2022-09-12T12:00:59.307Z,29.38
2022-09-12T12:03:48.990Z,29.82
2022-09-12T12:07:09.293Z,29.70
2022-09-12T12:09:57.541Z,31.11
2022-09-12T12:12:45.942Z,32.08
2022-09-12T12:15:37.757Z,33.16
2022-09-12T12:18:31.596Z,33.56
2022-09-12T12:21:36.733Z,34.80
2022-09-12T12:24:29.117Z,35.57
2022-09-12T12:27:44.930Z,36.02
2022-09-12T12:30:33.730Z,36.71
2022-09-12T12:33:22.033Z,37.12
2022-09-12T12:36:30.136Z,37.46
2022-09-12T12:39:33.517Z,38.69
2022-09-12T12:42:33.892Z,38.65
2022-09-12T12:45:27.911Z,38.95
2022-09-12T12:48:20.564Z,39.04
2022-09-12T12:51:23.846Z,39.03
2022-09-12T12:54:42.438Z,39.72
2022-09-12T12:57:47.201Z,39.55
2022-09-12T13:00:40.042Z,41.24
2022-09-12T13:03:32.796Z,42.42
2022-09-12T13:06:35.327Z,42.17
2022-09-12T13:09:37.809Z,40.19
2022-09-12T13:12:44.485Z,39.78
2022-09-12T13:15:35.783Z,40.15
2022-09-12T13:18:40.958Z,40.94
2022-09-12T13:21:28.962Z,41.66
2022-09-12T13:24:18.813Z,41.86
2022-09-12T13:27:24.156Z,41.59
2022-09-12T13:30:15.861Z,42.04
2022-09-12T13:33:32.819Z,42.36
2022-09-12T13:37:10.627Z,42.11
2022-09-12T13:40:44.276Z,42.06
2022-09-12T13:43:46.978Z,42.21
2022-09-12T13:46:34.916Z,42.07
2022-09-12T13:49:39.630Z,42.75
2022-09-12T13:52:33.611Z,42.80
2022-09-12T13:55:38.566Z,42.25
2022-09-12T13:58:29.046Z,42.07
2022-09-12T14:01:16.738Z,42.39
2022-09-12T14:04:49.752Z,42.74
2022-09-12T14:07:55.335Z,41.76
2022-09-12T14:10:50.506Z,42.36
2022-09-12T14:13:39.722Z,43.05
2022-09-12T14:16:29.261Z,43.32
2022-09-12T14:19:26.248Z,43.47
2022-09-12T14:22:18.160Z,44.62
2022-09-12T14:25:10.963Z,44.22
2022-09-12T14:27:59.237Z,44.57
2022-09-12T14:31:00.564Z,44.58
2022-09-12T14:34:11.354Z,44.36
2022-09-12T14:36:59.573Z,44.66
2022-09-12T14:39:47.485Z,45.02
2022-09-12T14:42:35.475Z,45.63
2022-09-12T14:45:32.590Z,46.52
2022-09-12T14:48:30.746Z,47.53
2022-09-12T14:51:36.711Z,48.50
2022-09-12T14:54:27.964Z,49.11
2022-09-12T14:57:42.485Z,50.30
2022-09-12T15:00:34.730Z,51.14
2022-09-12T15:03:32.569Z,51.65
2022-09-12T15:06:32.569Z,52.18
2022-09-12T15:09:20.546Z,52.55
2022-09-12T15:12:11.256Z,52.90
2022-09-12T15:15:20.752Z,53.31
2022-09-12T15:18:08.944Z,54.11
2022-09-12T15:21:05.634Z,54.42
2022-09-12T15:23:54.115Z,54.59
2022-09-12T15:26:41.720Z,55.44
2022-09-12T15:29:29.741Z,55.69
2022-09-12T15:32:30.387Z,56.51
2022-09-12T15:35:23.165Z,57.21
2022-09-12T15:38:13.628Z,58.03
2022-09-12T15:41:01.564Z,58.64
2022-09-12T15:44:01.538Z,59.44
2022-09-12T15:46:50.770Z,59.89
2022-09-12T15:49:39.192Z,59.99
2022-09-12T15:52:27.360Z,60.69
2022-09-12T15:55:25.959Z,61.08
2022-09-12T15:58:16.428Z,61.60
2022-09-12T16:01:05.777Z,62.29
2022-09-12T16:04:00.282Z,62.58
2022-09-12T16:06:48.308Z,63.28
2022-09-12T16:09:39.113Z,63.68
2022-09-12T16:12:26.918Z,64.21
2022-09-12T16:15:20.190Z,64.68
2022-09-12T16:18:14.241Z,64.99
2022-09-12T16:21:03.702Z,65.72
2022-09-12T16:23:52.747Z,66.17
2022-09-12T16:26:43.321Z,66.07
2022-09-12T16:29:33.612Z,66.60
2022-09-12T16:32:21.450Z,67.20
2022-09-12T16:35:12.132Z,67.50
2022-09-12T16:38:02.853Z,67.81
2022-09-12T16:40:50.973Z,68.11
2022-09-12T16:43:40.167Z,68.74
2022-09-12T16:46:29.053Z,69.01
2022-09-12T16:49:17.034Z,69.59
2022-09-12T16:52:08.655Z,70.53
2022-09-12T16:55:00.677Z,70.61
2022-09-12T16:57:49.713Z,71.25
2022-09-12T17:00:42.635Z,71.93
2022-09-12T17:03:31.895Z,72.32
2022-09-12T17:06:22.587Z,73.53
2022-09-12T17:09:11.683Z,73.98
2022-09-12T17:11:59.338Z,74.78
2022-09-12T17:14:47.153Z,75.43
2022-09-12T17:17:35.914Z,76.58
2022-09-12T17:20:26.088Z,77.14
2022-09-12T17:23:14.313Z,77.23
2022-09-12T17:26:03.859Z,77.75
2022-09-12T17:28:51.492Z,78.00
2022-09-12T17:31:43.745Z,78.67
2022-09-12T17:34:39.341Z,78.91
2022-09-12T17:37:33.583Z,79.45
2022-09-12T17:40:37.242Z,80.06
2022-09-12T17:43:33.611Z,80.44
2022-09-12T17:46:24.495Z,80.87
2022-09-12T17:49:16.960Z,81.61
2022-09-12T17:52:05.303Z,81.66
2022-09-12T17:54:53.123Z,82.10
2022-09-12T17:57:42.172Z,82.75
2022-09-12T18:00:49.819Z,83.76
2022-09-12T18:03:37.681Z,83.99
2022-09-12T18:06:25.879Z,84.28
2022-09-12T18:09:18.836Z,84.86
2022-09-12T18:12:08.288Z,84.75
2022-09-12T18:14:56.363Z,84.93
2022-09-12T18:17:46.936Z,85.67
2022-09-12T18:20:34.910Z,85.77
2022-09-12T18:23:22.863Z,86.15
2022-09-12T18:26:12.684Z,86.68
2022-09-12T18:29:00.895Z,86.62
2022-09-12T18:31:52.784Z,86.97
2022-09-12T18:34:40.890Z,87.32
2022-09-12T18:37:28.961Z,87.56
2022-09-12T18:40:17.576Z,87.84
2022-09-12T18:43:05.590Z,88.55
2022-09-12T18:45:53.585Z,88.74
2022-09-12T18:48:42.961Z,88.64
2022-09-12T18:51:36.209Z,88.89
2022-09-12T18:54:24.118Z,89.24
2022-09-12T18:57:12.177Z,89.35
2022-09-12T18:59:59.828Z,89.57
2022-09-12T19:02:48.018Z,89.95
2022-09-12T19:05:35.772Z,90.45
2022-09-12T19:08:25.519Z,90.44
2022-09-12T19:11:13.669Z,90.42
2022-09-12T19:14:02.250Z,90.61
2022-09-12T19:16:52.309Z,90.56
2022-09-12T19:19:40.941Z,90.55
2022-09-12T19:22:29.752Z,91.07
2022-09-12T19:25:17.616Z,90.72
2022-09-12T19:28:05.856Z,90.92
2022-09-12T19:30:54.162Z,90.62
2022-09-12T19:33:42.743Z,90.61
2022-09-12T19:36:45.002Z,90.66
2022-09-12T19:39:41.748Z,90.47
2022-09-12T19:42:29.701Z,90.70
2022-09-12T19:45:17.648Z,90.78
2022-09-12T19:48:05.859Z,91.00
2022-09-12T19:50:54.076Z,90.94
2022-09-12T19:53:43.795Z,91.36
2022-09-12T19:56:35.058Z,91.74
2022-09-12T19:59:25.775Z,92.34
2022-09-12T20:02:16.283Z,92.44
2022-09-12T20:05:05.802Z,92.57
2022-09-12T20:07:55.902Z,92.59
2022-09-12T20:10:44.332Z,92.55
2022-09-12T20:13:35.709Z,92.99
2022-09-12T20:16:29.612Z,92.40
2022-09-12T20:19:17.905Z,92.88
2022-09-12T20:22:05.939Z,92.93
2022-09-12T20:24:57.307Z,93.06
2022-09-12T20:27:48.404Z,93.39
2022-09-12T20:30:36.223Z,92.95
2022-09-12T20:33:27.607Z,92.95
2022-09-12T20:36:19.114Z,93.35
2022-09-12T20:39:08.864Z,93.58
2022-09-12T20:41:56.519Z,93.14
2022-09-12T20:44:44.425Z,93.29
2022-09-12T20:47:32.224Z,93.84
2022-09-12T20:50:21.121Z,94.38
2022-09-12T20:53:08.853Z,94.17
2022-09-12T20:55:57.027Z,94.19
2022-09-12T20:58:45.068Z,94.40
2022-09-12T21:01:33.618Z,94.46
2022-09-12T21:04:22.975Z,94.81
2022-09-12T21:07:10.804Z,95.15
2022-09-12T21:09:58.894Z,95.07
2022-09-12T21:12:46.837Z,94.88
2022-09-12T21:15:35.058Z,94.51
2022-09-12T21:18:23.134Z,94.74
2022-09-12T21:21:15.109Z,94.57
2022-09-12T21:24:04.028Z,94.22
2022-09-12T21:26:51.845Z,94.66
2022-09-12T21:29:39.857Z,94.42
2022-09-12T21:32:34.701Z,94.63
2022-09-12T21:35:22.676Z,94.89
2022-09-12T21:38:11.513Z,95.18
2022-09-12T21:41:12.150Z,94.59
2022-09-12T21:44:00.209Z,94.86
2022-09-12T21:46:48.604Z,95.04
2022-09-12T21:49:36.431Z,95.28
2022-09-12T21:52:32.040Z,95.18
2022-09-12T21:55:30.140Z,95.40
2022-09-12T21:58:51.451Z,95.86
2022-09-12T22:06:08.923Z,95.77
2022-09-12T22:09:01.671Z,95.81
2022-09-12T22:12:40.825Z,96.08
2022-09-12T22:15:56.552Z,96.55
2022-09-12T22:18:50.771Z,96.95
2022-09-12T22:22:03.057Z,97.20
2022-09-12T22:25:06.470Z,97.56
2022-09-12T22:28:21.613Z,98.23
2022-09-12T22:31:27.055Z,98.68
2022-09-12T22:34:41.025Z,98.85
2022-09-12T22:37:37.292Z,98.98
2022-09-12T22:40:25.135Z,99.13
2022-09-12T22:43:13.183Z,99.34
2022-09-12T22:46:01.795Z,99.43
2022-09-12T22:48:49.763Z,99.23
2022-09-12T22:51:37.897Z,99.17
2022-09-12T22:54:26.004Z,99.10
2022-09-12T22:57:17.107Z,99.25
2022-09-12T23:00:12.601Z,99.00
2022-09-12T23:03:00.472Z,99.04
2022-09-12T23:05:49.128Z,99.03
2022-09-12T23:08:38.979Z,99.15
2022-09-12T23:11:28.058Z,99.15
2022-09-12T23:14:17.354Z,98.75
2022-09-12T23:17:05.269Z,98.77
2022-09-12T23:19:53.077Z,99.13
2022-09-12T23:22:41.007Z,98.88
2022-09-12T23:25:28.950Z,98.76
2022-09-12T23:28:17.065Z,98.53
2022-09-12T23:31:06.331Z,98.58
2022-09-12T23:33:56.035Z,98.75
2022-09-12T23:36:43.758Z,98.99
2022-09-12T23:39:35.009Z,99.21
2022-09-12T23:42:22.893Z,99.46
2022-09-12T23:45:11.043Z,99.35
2022-09-12T23:47:58.683Z,99.45
2022-09-12T23:50:48.623Z,99.43
2022-09-12T23:53:37.322Z,99.71
2022-09-12T23:56:25.643Z,99.74
2022-09-12T23:59:13.607Z,99.70
